Urb Marines, Puerto Rico
Current Conditions -  °F | °C
As of 6:53 AM on Friday 19 Dec 2014 (Local Time) from TJNR Reporting Station
Overcast Overcast  
Wind Chill: 78°   Ceiling: 8000
Heat Index: 80°   Visibility: 10mi
Dew Point: 67°   Wind: 8mph
Humidity: 68%   Direction: 40°NE
Pressure: 29.99"   Gusts: NA
Location:  18.3304°N, 65.6573°W
Report Text: TJNR 191053Z AUTO 04007KT 10SM FEW032 FEW046 OVC080 26/19 A2999 RMK AO2 SLP156 T02560194 $
Loading
Personal Weather Stations






























Interactive Weather Map New forecast layout! Learn more

10-Day Weather Forecast

Advertisements
Track Severe Weather on mobile